Time;durP1;ratioP1;P1;durP2;ratioP2;P2;SDS_P1;SDS_P2;PMS_P1;PMS_P2;Temp;Humidity;BMP_temperature;BMP_pressure;BME280_temperature;BME280_humidity;BME280_pressure;Samples;Min_cycle;Max_cycle;Signal;HPM_P1;HPM_P2
2022/08/14 04:00:12;;;;;;;8.32;7.32;;;14.40;99.90;;;;;;6048657;23;20014;31
2022/08/14 04:02:39;;;;;;;7.97;7.18;;;14.30;99.90;;;;;;4953790;28;20056;-70
2022/08/14 04:05:07;;;;;;;10.43;7.18;;;14.30;99.90;;;;;;4957831;28;20032;-70
2022/08/14 04:07:32;;;;;;;9.95;7.75;;;14.30;99.90;;;;;;4958466;28;20107;-70
2022/08/14 04:09:58;;;;;;;8.43;7.47;;;14.30;99.90;;;;;;4958283;28;20039;-70
2022/08/14 04:12:24;;;;;;;7.65;6.95;;;14.30;99.90;;;;;;4958409;28;20047;-71
2022/08/14 04:14:51;;;;;;;8.32;7.40;;;14.30;99.90;;;;;;4957863;28;20039;-71
2022/08/14 04:17:20;;;;;;;8.18;7.38;;;14.30;99.90;;;;;;4958688;28;20039;-71
2022/08/14 04:19:46;;;;;;;10.00;7.40;;;14.30;99.90;;;;;;4957975;28;20090;-71
2022/08/14 04:22:12;;;;;;;8.77;6.70;;;14.30;99.90;;;;;;4958430;28;20054;-71
2022/08/14 04:24:38;;;;;;;7.85;7.15;;;14.20;99.90;;;;;;4958118;28;20519;-71
2022/08/14 04:27:07;;;;;;;7.90;7.10;;;14.20;99.90;;;;;;4957726;28;20126;-71
2022/08/14 04:29:37;;;;;;;7.85;7.13;;;14.20;99.90;;;;;;4957437;28;20063;-71
2022/08/14 04:32:03;;;;;;;8.40;7.50;;;14.30;99.90;;;;;;4957676;28;20040;-71
2022/08/14 04:34:29;;;;;;;7.53;6.82;;;14.30;99.90;;;;;;4957708;28;20032;-71
2022/08/14 04:45:08;;;;;;;10.45;7.35;;;14.50;99.90;;;;;;4955786;28;20032;-71
2022/08/14 04:50:18;;;;;;;8.75;7.20;;;14.50;99.90;;;;;;4956926;28;20031;-71
2022/08/14 04:52:43;;;;;;;8.70;7.60;;;14.60;99.90;;;;;;4958405;28;20482;-71
2022/08/14 04:55:09;;;;;;;8.23;7.43;;;14.60;99.90;;;;;;4956678;28;20044;-71
2022/08/14 04:57:37;;;;;;;8.07;7.28;;;14.70;99.90;;;;;;4958159;28;20114;-71
2022/08/14 05:00:05;;;;;;;8.52;7.65;;;14.80;99.90;;;;;;4956226;28;20062;-71
2022/08/14 05:02:33;;;;;;;9.52;7.63;;;14.90;99.90;;;;;;4956109;28;20044;-71
2022/08/14 05:04:59;;;;;;;10.27;7.93;;;15.00;99.90;;;;;;4956223;28;20035;-71
2022/08/14 05:07:24;;;;;;;9.05;7.07;;;15.10;99.90;;;;;;4957557;28;20043;-71
2022/08/14 05:09:50;;;;;;;10.85;7.70;;;15.10;99.90;;;;;;4957140;28;20106;-71
2022/08/14 05:12:16;;;;;;;8.32;7.00;;;15.20;99.90;;;;;;4957589;28;20079;-71
2022/08/14 05:14:42;;;;;;;9.27;7.68;;;15.30;99.90;;;;;;4957497;28;20146;-71
2022/08/14 05:17:09;;;;;;;8.55;7.65;;;15.30;99.90;;;;;;4957930;28;20031;-71
2022/08/14 05:19:34;;;;;;;8.35;7.40;;;15.30;99.90;;;;;;4956926;28;20032;-71
2022/08/14 05:22:01;;;;;;;8.27;7.47;;;15.40;99.90;;;;;;4957238;28;20052;-71
2022/08/14 05:24:27;;;;;;;9.98;7.60;;;15.40;99.90;;;;;;4955022;28;20075;-71
2022/08/14 05:26:53;;;;;;;10.15;7.72;;;15.60;99.90;;;;;;4957370;28;20043;-71
2022/08/14 05:29:19;;;;;;;8.18;7.38;;;15.60;99.90;;;;;;4957780;28;20032;-72
2022/08/14 05:31:45;;;;;;;7.60;6.80;;;15.80;99.90;;;;;;4955972;28;20044;-72
2022/08/14 05:34:10;;;;;;;9.73;7.30;;;15.80;99.90;;;;;;4956869;28;20088;-71
2022/08/14 05:36:36;;;;;;;9.27;7.88;;;15.90;99.90;;;;;;4957747;28;20074;-71
2022/08/14 05:39:03;;;;;;;8.48;7.57;;;16.00;99.90;;;;;;4957358;28;20082;-71
2022/08/14 05:41:30;;;;;;;12.18;7.85;;;16.00;99.90;;;;;;4956929;28;20063;-71
2022/08/14 05:43:55;;;;;;;9.55;7.65;;;16.20;99.90;;;;;;4957353;28;20028;-72
2022/08/14 05:46:21;;;;;;;12.80;8.40;;;16.20;99.90;;;;;;4955595;28;20036;-72
2022/08/14 05:48:52;;;;;;;10.10;8.02;;;16.30;99.90;;;;;;4957180;28;20028;-72
2022/08/14 05:51:18;;;;;;;9.05;7.90;;;16.40;99.90;;;;;;4957168;28;20063;-72
2022/08/14 05:53:44;;;;;;;9.00;7.53;;;16.50;99.90;;;;;;4957393;28;20119;-72
2022/08/14 05:56:10;;;;;;;8.18;7.32;;;16.50;99.90;;;;;;4955890;28;20115;-72
2022/08/14 05:58:36;;;;;;;8.07;7.18;;;16.60;99.90;;;;;;4957854;28;20393;-72
2022/08/14 06:01:02;;;;;;;8.23;7.18;;;16.70;99.90;;;;;;4955939;28;20051;-72
2022/08/14 06:03:27;;;;;;;7.93;7.15;;;16.70;99.90;;;;;;4955168;28;20035;-72
2022/08/14 06:05:54;;;;;;;10.77;6.65;;;16.80;99.90;;;;;;4956523;28;20405;-72
2022/08/14 06:08:24;;;;;;;8.07;7.28;;;16.90;99.90;;;;;;4955479;28;20044;-72
2022/08/14 06:10:51;;;;;;;7.20;6.43;;;17.10;99.60;;;;;;4956282;28;20040;-71
2022/08/14 06:13:17;;;;;;;8.35;7.07;;;17.20;99.40;;;;;;4956340;28;20059;-72
2022/08/14 06:15:43;;;;;;;7.47;6.78;;;17.30;99.50;;;;;;4956332;28;20127;-72
2022/08/14 06:18:10;;;;;;;8.32;7.28;;;17.40;99.20;;;;;;4954093;28;20035;-73
2022/08/14 06:20:36;;;;;;;7.43;6.68;;;17.50;99.10;;;;;;4956982;28;20055;-73
2022/08/14 06:23:02;;;;;;;7.47;6.78;;;17.60;98.60;;;;;;4957087;28;20409;-73
2022/08/14 06:25:28;;;;;;;8.18;6.95;;;17.70;98.40;;;;;;4956781;28;20047;-73
2022/08/14 06:27:54;;;;;;;10.50;7.53;;;17.80;98.30;;;;;;4956681;28;20042;-74
2022/08/14 06:30:23;;;;;;;8.00;7.20;;;17.90;97.90;;;;;;4956410;28;20079;-73
2022/08/14 06:32:49;;;;;;;6.78;6.15;;;18.00;97.80;;;;;;4956458;28;20030;-73
2022/08/14 06:35:22;;;;;;;9.00;6.93;;;18.20;97.80;;;;;;4956474;28;20075;-73
2022/08/14 06:37:51;;;;;;;8.68;6.65;;;18.20;97.40;;;;;;4956205;28;20038;-73
2022/08/14 06:40:21;;;;;;;11.30;7.32;;;18.40;97.20;;;;;;4956327;28;20087;-73
2022/08/14 06:42:47;;;;;;;9.05;6.70;;;18.60;96.60;;;;;;4956356;28;20044;-73
2022/08/14 06:45:13;;;;;;;9.98;7.03;;;18.70;96.30;;;;;;4951716;28;20035;-73
2022/08/14 06:47:42;;;;;;;6.80;6.13;;;18.90;96.20;;;;;;4951845;28;20035;-75
2022/08/14 06:50:10;;;;;;;9.63;6.93;;;19.00;95.90;;;;;;4956234;28;20043;-74
2022/08/14 06:52:36;;;;;;;11.80;6.72;;;19.10;95.50;;;;;;4956386;28;20032;-73
2022/08/14 06:55:03;;;;;;;7.65;6.60;;;19.20;95.40;;;;;;4955746;28;20099;-74
2022/08/14 06:57:40;;;;;;;8.02;6.50;;;19.40;95.10;;;;;;4955696;28;20039;-73
2022/08/14 07:00:07;;;;;;;7.20;6.40;;;19.50;95.40;;;;;;4954682;28;20048;-73
2022/08/14 07:08:02;;;;;;;7.88;6.10;;;19.70;94.40;;;;;;4951314;28;20043;-73
2022/08/14 07:10:28;;;;;;;8.82;6.75;;;19.90;94.50;;;;;;4950044;28;20043;-74
2022/08/14 07:12:53;;;;;;;7.82;6.43;;;20.00;93.90;;;;;;4946209;28;20040;-73
2022/08/14 07:15:19;;;;;;;7.78;6.50;;;20.10;93.90;;;;;;4970270;28;20043;-73
2022/08/14 07:17:50;;;;;;;8.20;5.97;;;20.20;94.00;;;;;;4954801;28;20039;-74
2022/08/14 07:20:19;;;;;;;6.43;5.82;;;20.30;93.50;;;;;;4955776;28;20048;-73
2022/08/14 07:22:48;;;;;;;8.10;6.18;;;20.50;93.30;;;;;;4955720;28;20028;-73
2022/08/14 07:25:14;;;;;;;8.35;6.22;;;20.60;92.60;;;;;;4953854;28;20119;-73
2022/08/14 07:27:40;;;;;;;8.48;5.97;;;20.70;92.50;;;;;;4954235;28;20032;-73
2022/08/14 07:30:06;;;;;;;7.18;5.75;;;20.90;92.20;;;;;;4955979;28;20046;-73
2022/08/14 07:32:32;;;;;;;6.13;5.53;;;21.10;91.80;;;;;;4955206;28;20036;-73
2022/08/14 07:34:57;;;;;;;7.85;5.57;;;21.30;91.70;;;;;;4954768;28;20048;-73
2022/08/14 07:37:23;;;;;;;7.47;5.32;;;21.40;91.00;;;;;;4955288;28;20112;-74
2022/08/14 07:39:50;;;;;;;7.88;5.25;;;21.70;90.30;;;;;;4953721;28;20481;-74
2022/08/14 07:42:16;;;;;;;6.82;5.63;;;21.90;89.90;;;;;;4955189;28;20099;-74
2022/08/14 07:44:41;;;;;;;8.13;5.47;;;22.10;89.10;;;;;;4955363;28;20090;-74
2022/08/14 07:47:07;;;;;;;5.60;4.85;;;22.20;87.80;;;;;;4955563;28;20434;-74
2022/08/14 07:49:33;;;;;;;7.45;5.20;;;22.50;87.80;;;;;;4955788;28;20426;-74
2022/08/14 07:52:02;;;;;;;5.40;4.88;;;22.70;86.10;;;;;;4955175;28;20130;-74
2022/08/14 07:54:28;;;;;;;5.57;5.00;;;23.00;84.60;;;;;;4955710;28;20063;-80
2022/08/14 07:56:53;;;;;;;5.93;5.32;;;23.30;83.90;;;;;;4956397;28;20051;-76
2022/08/14 07:59:20;;;;;;;6.93;4.93;;;23.50;82.30;;;;;;4956309;28;20036;-74
2022/08/14 08:01:46;;;;;;;5.50;4.95;;;23.70;82.50;;;;;;4954769;28;20051;-74
2022/08/14 08:04:13;;;;;;;7.75;4.47;;;24.00;81.30;;;;;;4956572;28;20082;-75
2022/08/14 08:06:39;;;;;;;6.00;4.93;;;24.40;79.90;;;;;;4955756;28;20437;-74
2022/08/14 08:09:07;;;;;;;5.25;4.75;;;24.50;78.20;;;;;;4955365;28;20518;-74
2022/08/14 08:11:35;;;;;;;6.28;4.38;;;24.60;79.30;;;;;;4954737;28;20047;-74
2022/08/14 08:14:05;;;;;;;6.55;4.60;;;24.90;77.70;;;;;;4954266;28;20080;-74
2022/08/14 08:16:32;;;;;;;5.30;4.60;;;25.10;76.50;;;;;;4954899;28;20457;-74
2022/08/14 08:18:58;;;;;;;5.30;4.22;;;25.50;76.00;;;;;;4954633;28;20122;-74
2022/08/14 08:21:25;;;;;;;5.55;4.57;;;25.70;73.10;;;;;;4959357;28;20094;-74
2022/08/14 08:23:51;;;;;;;5.88;4.28;;;26.00;73.90;;;;;;4959565;28;20127;-75
2022/08/14 08:26:16;;;;;;;7.40;4.50;;;26.20;71.70;;;;;;4958296;28;20508;-74
2022/08/14 08:28:42;;;;;;;4.93;4.45;;;26.10;71.10;;;;;;4958750;28;20036;-73
2022/08/14 08:31:07;;;;;;;4.88;4.43;;;26.40;70.60;;;;;;4958412;28;20503;-75
2022/08/14 08:33:34;;;;;;;7.15;4.30;;;26.60;70.00;;;;;;4959229;28;20094;-74
2022/08/14 08:36:07;;;;;;;6.97;4.18;;;26.80;69.30;;;;;;4958093;28;20040;-75
2022/08/14 08:38:32;;;;;;;6.13;4.32;;;26.90;67.90;;;;;;4958455;28;20044;-74
2022/08/14 08:40:59;;;;;;;3.95;3.65;;;27.00;66.80;;;;;;4959108;28;20047;-75
2022/08/14 08:43:31;;;;;;;4.13;3.83;;;27.30;67.40;;;;;;4956976;28;20071;-73
2022/08/14 08:46:02;;;;;;;4.10;3.70;;;27.50;65.30;;;;;;4958039;28;20103;-74
2022/08/14 08:49:09;;;;;;;4.78;3.90;;;27.60;65.70;;;;;;4957978;28;20525;-73
2022/08/14 08:51:37;;;;;;;4.75;3.80;;;27.90;64.60;;;;;;4974907;28;20537;-74
2022/08/14 08:54:09;;;;;;;5.47;3.70;;;28.00;63.50;;;;;;4974664;28;20094;-73
2022/08/14 08:56:41;;;;;;;4.60;3.55;;;28.10;63.50;;;;;;4967454;28;20056;-74
2022/08/14 08:59:23;;;;;;;4.80;3.90;;;28.20;63.70;;;;;;4958188;28;20485;-82
2022/08/14 09:01:58;;;;;;;4.80;3.67;;;28.30;63.20;;;;;;4958659;28;20044;-74
2022/08/14 09:04:26;;;;;;;6.75;4.18;;;28.60;61.70;;;;;;4959233;28;20553;-75
2022/08/14 09:06:52;;;;;;;4.25;3.38;;;28.70;61.90;;;;;;4959410;28;20528;-77
2022/08/14 09:09:23;;;;;;;9.48;3.53;;;28.90;61.50;;;;;;4959643;28;20051;-76
2022/08/14 09:11:52;;;;;;;3.85;3.30;;;28.80;60.10;;;;;;4958233;28;20200;-75
2022/08/14 09:14:18;;;;;;;4.88;3.00;;;28.90;59.60;;;;;;4956795;28;20035;-75
2022/08/14 09:16:44;;;;;;;3.40;3.00;;;29.20;58.60;;;;;;4959799;28;20039;-75
2022/08/14 09:19:10;;;;;;;3.05;2.70;;;29.50;56.40;;;;;;4957587;28;20078;-75
2022/08/14 09:21:38;;;;;;;3.22;2.92;;;29.60;54.90;;;;;;4957086;28;20044;-74
2022/08/14 09:24:06;;;;;;;4.07;3.00;;;29.60;55.40;;;;;;4956710;28;20039;-75
2022/08/14 09:26:32;;;;;;;2.85;2.58;;;29.80;55.20;;;;;;4954505;28;20122;-74
2022/08/14 09:28:58;;;;;;;3.55;3.22;;;29.90;54.10;;;;;;4957084;28;20040;-75
2022/08/14 09:31:25;;;;;;;5.28;3.70;;;30.30;54.70;;;;;;4958901;28;20406;-74
2022/08/14 09:34:17;;;;;;;3.85;2.50;;;30.50;53.40;;;;;;4957139;28;20472;-75
2022/08/14 09:36:52;;;;;;;2.90;2.70;;;30.60;52.50;;;;;;4938515;28;20036;-74
2022/08/14 09:39:44;;;;;;;3.20;2.90;;;30.70;52.50;;;;;;4964222;28;20044;-74
2022/08/14 09:42:27;;;;;;;3.88;3.00;;;30.60;51.50;;;;;;4956487;28;20453;-74
2022/08/14 09:44:53;;;;;;;4.82;2.53;;;30.80;51.70;;;;;;4956391;28;20587;-75
2022/08/14 09:47:19;;;;;;;4.03;2.80;;;31.00;51.40;;;;;;4956333;28;20064;-74
2022/08/14 09:49:45;;;;;;;3.50;3.08;;;31.00;50.80;;;;;;4957105;28;20068;-74
2022/08/14 09:52:14;;;;;;;6.85;3.17;;;31.20;50.10;;;;;;4955543;28;20440;-75
2022/08/14 09:54:42;;;;;;;3.72;2.83;;;31.30;50.30;;;;;;4957048;28;20494;-75
2022/08/14 09:57:24;;;;;;;4.03;2.75;;;31.50;50.00;;;;;;4956489;28;20134;-75
2022/08/14 09:59:51;;;;;;;3.33;3.03;;;31.50;50.10;;;;;;4956890;28;20484;-79
2022/08/14 10:02:24;;;;;;;3.58;2.58;;;31.60;49.40;;;;;;4956313;28;20074;-74
2022/08/14 10:05:05;;;;;;;2.90;2.53;;;31.70;49.30;;;;;;4955934;28;20520;-73
2022/08/14 10:07:54;;;;;;;4.93;3.20;;;31.60;49.40;;;;;;4956123;28;20039;-73
2022/08/14 10:10:32;;;;;;;3.45;3.13;;;31.50;49.70;;;;;;4956016;28;20063;-73
2022/08/14 10:13:00;;;;;;;3.78;3.10;;;31.50;49.40;;;;;;4956834;28;20063;-73
2022/08/14 10:15:28;;;;;;;2.90;2.70;;;31.70;49.20;;;;;;4989272;23;20057;-82
2022/08/14 10:18:12;;;;;;;3.25;2.95;;;31.80;48.70;;;;;;4981568;28;20058;-81
2022/08/14 10:20:42;;;;;;;3.25;2.90;;;31.90;48.70;;;;;;4976617;28;20423;-82
2022/08/14 10:23:13;;;;;;;2.92;2.70;;;32.10;48.90;;;;;;4971744;28;20035;-82
2022/08/14 10:25:49;;;;;;;3.45;3.00;;;32.10;49.10;;;;;;4963811;28;20477;-81
2022/08/14 10:28:19;;;;;;;3.70;3.08;;;32.40;48.80;;;;;;4959467;28;20936;-81
2022/08/14 10:30:49;;;;;;;5.00;3.10;;;32.50;47.60;;;;;;4965768;28;20094;-81
2022/08/14 10:33:28;;;;;;;3.95;3.08;;;32.60;49.00;;;;;;4965151;28;20437;-81
2022/08/14 10:35:54;;;;;;;3.45;3.15;;;32.70;47.50;;;;;;4981673;28;20095;-83
2022/08/14 10:38:31;;;;;;;3.50;3.20;;;32.90;47.40;;;;;;4981424;28;20059;-82
2022/08/14 10:41:13;;;;;;;4.72;3.53;;;32.80;47.40;;;;;;4985130;28;20035;-82
2022/08/14 10:43:41;;;;;;;3.78;3.47;;;33.00;47.90;;;;;;4987469;28;20050;-82
2022/08/14 10:46:17;;;;;;;3.50;3.20;;;33.10;47.50;;;;;;4987312;28;20035;-82
2022/08/14 10:49:01;;;;;;;4.78;3.22;;;33.10;47.20;;;;;;4970694;28;20502;-83
2022/08/14 10:51:29;;;;;;;5.15;3.33;;;33.20;47.80;;;;;;4962209;28;20767;-83
2022/08/14 10:53:57;;;;;;;4.30;3.75;;;33.20;47.00;;;;;;4967363;28;20947;-83
2022/08/14 10:56:32;;;;;;;4.25;3.60;;;33.30;47.30;;;;;;4971020;28;20039;-82
2022/08/14 10:59:01;;;;;;;3.65;3.35;;;33.30;47.60;;;;;;4981032;28;20483;-82
2022/08/14 11:01:31;;;;;;;5.55;3.08;;;33.40;47.00;;;;;;4981797;28;20098;-83
2022/08/14 11:03:57;;;;;;;3.75;3.30;;;33.50;46.50;;;;;;4979375;28;20031;-82
2022/08/14 11:06:23;;;;;;;3.60;3.35;;;33.70;46.20;;;;;;4978553;28;20139;-82
2022/08/14 11:08:50;;;;;;;3.55;3.25;;;33.80;46.30;;;;;;4968800;28;20063;-83
2022/08/14 11:11:17;;;;;;;5.38;3.50;;;34.10;46.00;;;;;;4974695;28;20043;-82
2022/08/14 11:13:45;;;;;;;4.57;3.33;;;34.30;45.70;;;;;;4978089;28;20062;-83
2022/08/14 11:16:13;;;;;;;3.70;3.40;;;34.20;44.70;;;;;;4991058;28;20472;-84
2022/08/14 11:18:44;;;;;;;3.60;3.30;;;34.30;44.80;;;;;;4978939;28;20537;-83
2022/08/14 11:21:15;;;;;;;3.60;3.30;;;34.40;45.40;;;;;;4978358;28;20412;-83
2022/08/14 11:23:44;;;;;;;3.72;3.10;;;34.30;45.00;;;;;;4977068;28;20035;-83
2022/08/14 11:26:12;;;;;;;3.97;3.22;;;34.50;44.40;;;;;;4980203;28;20421;-83
2022/08/14 11:28:40;;;;;;;3.78;3.10;;;34.60;44.70;;;;;;4981447;28;20055;-82
2022/08/14 11:31:09;;;;;;;4.10;3.30;;;34.60;44.20;;;;;;4989872;28;20023;-84
2022/08/14 11:33:37;;;;;;;3.40;3.10;;;34.60;44.90;;;;;;4988886;28;20031;-83
2022/08/14 11:36:06;;;;;;;3.95;3.28;;;34.50;43.50;;;;;;4982202;28;20044;-83
2022/08/14 11:38:49;;;;;;;4.80;3.58;;;34.70;44.40;;;;;;4979409;28;20040;-83
2022/08/14 11:41:15;;;;;;;3.40;3.10;;;34.70;43.30;;;;;;4982195;28;20059;-83
2022/08/14 11:43:42;;;;;;;4.28;3.40;;;35.00;43.40;;;;;;4983063;28;20039;-83
2022/08/14 11:46:12;;;;;;;3.28;2.97;;;35.10;43.50;;;;;;4983095;28;20054;-82
2022/08/14 11:48:52;;;;;;;5.07;3.13;;;35.30;41.70;;;;;;4973147;28;20524;-82
2022/08/14 11:51:25;;;;;;;3.63;3.30;;;34.80;43.40;;;;;;4975721;28;20043;-82
2022/08/14 11:53:56;;;;;;;3.42;3.13;;;34.90;43.00;;;;;;4989613;28;20453;-82
2022/08/14 11:56:22;;;;;;;3.88;3.35;;;34.90;43.20;;;;;;4999144;28;20100;-82
2022/08/14 11:58:53;;;;;;;3.70;3.40;;;34.90;43.00;;;;;;4993897;28;20030;-82
2022/08/14 12:01:29;;;;;;;3.97;2.92;;;35.10;42.90;;;;;;4998081;28;20158;-83
2022/08/14 12:04:07;;;;;;;3.20;2.90;;;35.00;41.50;;;;;;4990276;28;20066;-82
2022/08/14 12:06:51;;;;;;;3.42;3.13;;;35.20;42.20;;;;;;4975454;28;20035;-83
2022/08/14 12:09:35;;;;;;;3.38;3.08;;;35.40;43.00;;;;;;4991348;28;20046;-82
2022/08/14 12:12:16;;;;;;;3.58;3.20;;;35.60;42.40;;;;;;4981077;28;20047;-82
2022/08/14 12:14:59;;;;;;;3.65;3.30;;;35.60;41.20;;;;;;4996094;28;20034;-82
2022/08/14 12:17:41;;;;;;;3.20;2.90;;;34.90;42.00;;;;;;4984429;28;20040;-83
2022/08/14 12:20:08;;;;;;;5.13;3.00;;;34.40;43.10;;;;;;4975107;28;20031;-81
2022/08/14 12:22:37;;;;;;;3.63;3.33;;;34.50;42.80;;;;;;4974541;28;20190;-82
2022/08/14 12:25:17;;;;;;;3.80;3.50;;;35.00;42.20;;;;;;4976895;28;20055;-83
2022/08/14 12:27:48;;;;;;;3.10;2.90;;;35.10;41.40;;;;;;4976923;28;20494;-83
2022/08/14 12:30:24;;;;;;;4.38;2.92;;;35.00;41.50;;;;;;4981358;28;20047;-82
2022/08/14 12:32:50;;;;;;;3.75;3.10;;;35.30;41.80;;;;;;4973519;28;20130;-82
2022/08/14 12:35:15;;;;;;;3.70;3.15;;;35.30;41.60;;;;;;4980763;28;20055;-82
2022/08/14 12:37:49;;;;;;;4.25;3.10;;;35.90;41.00;;;;;;4972916;28;20432;-80
2022/08/14 12:40:16;;;;;;;3.33;2.85;;;36.30;40.30;;;;;;4963555;28;20035;-78
2022/08/14 12:42:44;;;;;;;3.47;3.10;;;36.60;40.20;;;;;;4972330;28;20039;-79
2022/08/14 12:45:12;;;;;;;3.78;3.42;;;37.10;39.50;;;;;;4966057;28;20036;-79
2022/08/14 12:47:41;;;;;;;3.70;3.38;;;37.00;39.80;;;;;;4980442;28;20038;-78
2022/08/14 12:50:09;;;;;;;3.38;3.10;;;36.70;39.60;;;;;;4964513;28;20413;-79
2022/08/14 12:52:39;;;;;;;3.65;3.15;;;36.70;40.60;;;;;;4976638;28;20050;-81
2022/08/14 12:55:13;;;;;;;3.20;2.90;;;37.20;39.20;;;;;;4975704;28;20118;-80
2022/08/14 12:57:44;;;;;;;3.25;3.05;;;37.20;38.70;;;;;;4982235;28;20063;-81
2022/08/14 13:00:16;;;;;;;4.57;3.25;;;37.00;38.30;;;;;;4970740;28;20446;-81
2022/08/14 13:02:42;;;;;;;3.40;3.10;;;36.20;39.90;;;;;;4971744;28;20050;-78
2022/08/14 13:05:10;;;;;;;3.38;3.08;;;36.30;40.40;;;;;;4963965;28;20027;-78
2022/08/14 13:07:39;;;;;;;4.28;3.22;;;36.50;39.90;;;;;;4962669;28;20542;-78
2022/08/14 13:10:06;;;;;;;3.40;3.10;;;36.70;40.10;;;;;;4963882;28;20032;-78
2022/08/14 13:12:33;;;;;;;3.33;3.03;;;37.20;38.40;;;;;;4971039;28;20043;-79
2022/08/14 13:15:01;;;;;;;3.50;3.20;;;37.20;38.20;;;;;;4971595;28;20476;-78
2022/08/14 13:17:27;;;;;;;4.10;3.10;;;37.60;38.20;;;;;;4963111;28;20806;-78
2022/08/14 13:19:56;;;;;;;3.80;3.40;;;37.40;37.90;;;;;;4974487;28;20044;-77
2022/08/14 13:22:27;;;;;;;4.28;3.42;;;36.10;38.40;;;;;;4966361;28;20047;-78
2022/08/14 13:24:54;;;;;;;3.08;2.88;;;35.30;39.40;;;;;;4967480;28;20035;-77
2022/08/14 13:27:22;;;;;;;3.45;3.15;;;35.10;40.50;;;;;;4966568;28;20049;-79
2022/08/14 13:29:51;;;;;;;3.80;3.22;;;34.50;41.20;;;;;;4959714;28;20492;-79
2022/08/14 13:32:17;;;;;;;6.22;3.35;;;34.90;41.70;;;;;;4958635;28;20052;-76
2022/08/14 13:34:46;;;;;;;4.85;3.45;;;35.70;40.30;;;;;;4956297;28;20053;-80
2022/08/14 13:37:14;;;;;;;3.63;3.33;;;37.10;39.80;;;;;;4967525;28;20535;-78
2022/08/14 13:39:49;;;;;;;5.05;3.22;;;38.50;38.10;;;;;;4977708;28;20047;-80
2022/08/14 13:42:17;;;;;;;6.50;3.17;;;38.80;36.10;;;;;;4978339;28;20035;-78
2022/08/14 13:44:44;;;;;;;3.55;3.25;;;39.40;36.20;;;;;;4964837;28;20032;-81
2022/08/14 13:47:10;;;;;;;3.65;2.97;;;39.90;34.30;;;;;;4958515;28;20042;-78
2022/08/14 13:49:37;;;;;;;3.65;3.10;;;40.70;34.30;;;;;;4959917;28;20031;-78
2022/08/14 13:52:07;;;;;;;6.32;3.40;;;41.80;33.20;;;;;;4968703;28;20385;-81
2022/08/14 13:54:34;;;;;;;3.60;3.30;;;41.60;32.30;;;;;;4983515;28;20793;-77
2022/08/14 13:57:02;;;;;;;3.47;3.17;;;41.90;33.50;;;;;;4985801;28;20059;-84
2022/08/14 13:59:32;;;;;;;3.60;3.30;;;40.80;33.50;;;;;;4973744;28;20027;-80
2022/08/14 14:02:04;;;;;;;4.90;3.38;;;41.10;33.40;;;;;;4974924;28;20045;-78
2022/08/14 14:04:30;;;;;;;3.83;3.42;;;42.00;32.70;;;;;;4976976;28;20040;-79
2022/08/14 14:07:02;;;;;;;3.60;3.30;;;41.50;33.50;;;;;;4960340;28;20047;-79
2022/08/14 14:09:30;;;;;;;3.72;3.40;;;42.20;32.90;;;;;;4957315;28;20086;-78
2022/08/14 14:11:59;;;;;;;3.95;3.20;;;43.50;31.70;;;;;;4957755;28;20087;-77
2022/08/14 14:14:25;;;;;;;3.72;3.42;;;43.50;31.40;;;;;;4966283;28;20035;-78
2022/08/14 14:16:51;;;;;;;3.38;3.17;;;42.10;31.40;;;;;;4974860;28;20032;-83
2022/08/14 14:19:20;;;;;;;3.38;3.17;;;40.60;33.40;;;;;;4976405;28;20035;-78
2022/08/14 14:21:49;;;;;;;3.55;3.30;;;39.80;34.10;;;;;;4975956;28;20561;-78
2022/08/14 14:24:15;;;;;;;6.07;3.40;;;38.40;35.20;;;;;;4962412;28;20068;-78
2022/08/14 14:26:47;;;;;;;3.53;3.22;;;37.10;36.90;;;;;;4956836;28;20028;-78
2022/08/14 14:29:13;;;;;;;4.28;3.88;;;36.20;38.80;;;;;;4956958;28;20040;-78
2022/08/14 14:31:40;;;;;;;4.18;3.60;;;36.70;39.10;;;;;;4955709;28;20053;-77
2022/08/14 14:34:08;;;;;;;4.35;3.85;;;37.60;37.90;;;;;;4966750;28;20077;-77
2022/08/14 14:36:34;;;;;;;3.70;3.40;;;36.90;37.50;;;;;;4975840;28;20031;-77
2022/08/14 14:39:06;;;;;;;3.50;3.20;;;36.40;38.30;;;;;;4961956;28;20114;-76
2022/08/14 14:41:37;;;;;;;4.05;3.70;;;37.50;37.90;;;;;;4956384;28;20052;-77
2022/08/14 14:44:05;;;;;;;4.45;3.30;;;38.30;37.60;;;;;;4957245;28;20087;-77
2022/08/14 14:46:35;;;;;;;3.80;3.50;;;40.60;35.40;;;;;;4955202;28;20577;-77
2022/08/14 14:49:01;;;;;;;3.58;3.20;;;42.40;33.40;;;;;;4966882;28;20516;-77
2022/08/14 14:51:27;;;;;;;3.38;3.08;;;43.20;31.60;;;;;;4975192;28;20047;-77
2022/08/14 14:53:53;;;;;;;3.70;3.10;;;42.70;31.10;;;;;;4961282;28;20042;-78
2022/08/14 14:56:19;;;;;;;3.70;3.38;;;43.50;31.10;;;;;;4956548;28;20560;-78
2022/08/14 14:58:45;;;;;;;3.47;3.17;;;43.60;30.80;;;;;;4976754;28;20042;-78
2022/08/14 15:01:14;;;;;;;4.30;3.22;;;42.90;31.10;;;;;;4976642;28;20047;-78
2022/08/14 15:03:42;;;;;;;3.70;3.40;;;41.40;31.70;;;;;;4963589;28;20031;-78
2022/08/14 15:06:08;;;;;;;3.63;3.33;;;39.60;33.30;;;;;;4975299;28;20501;-78
2022/08/14 15:08:34;;;;;;;3.80;3.28;;;38.30;36.80;;;;;;4965014;28;20047;-79
2022/08/14 15:11:00;;;;;;;3.65;3.20;;;37.60;35.90;;;;;;4966344;28;20307;-78
2022/08/14 15:13:26;;;;;;;3.50;3.30;;;37.50;36.90;;;;;;4976370;28;20066;-78
2022/08/14 15:15:55;;;;;;;4.10;3.67;;;38.50;36.10;;;;;;4977973;28;20102;-79
2022/08/14 15:18:25;;;;;;;3.40;3.10;;;39.50;35.30;;;;;;4976102;28;20036;-79
2022/08/14 15:20:52;;;;;;;3.40;3.10;;;39.10;34.70;;;;;;4975517;28;20043;-79
2022/08/14 15:23:19;;;;;;;3.88;3.15;;;38.20;36.10;;;;;;4964790;28;20122;-79
2022/08/14 15:25:45;;;;;;;3.80;3.50;;;37.20;38.00;;;;;;4966702;28;20044;-78
2022/08/14 15:28:11;;;;;;;3.83;3.47;;;35.80;37.80;;;;;;4957233;28;20028;-79
2022/08/14 15:30:41;;;;;;;3.38;3.15;;;35.60;39.00;;;;;;4963578;28;20039;-79
2022/08/14 15:33:07;;;;;;;3.22;2.95;;;35.50;40.10;;;;;;4960593;28;20127;-78
2022/08/14 15:35:33;;;;;;;4.28;3.88;;;35.40;38.20;;;;;;4962558;28;20167;-78
2022/08/14 15:38:07;;;;;;;3.90;3.10;;;35.90;39.90;;;;;;4970461;28;20401;-78
2022/08/14 15:40:39;;;;;;;4.05;3.40;;;36.00;39.00;;;;;;4981548;28;20050;-78
2022/08/14 15:43:10;;;;;;;5.63;3.30;;;36.90;36.30;;;;;;4981582;28;20118;-78
2022/08/14 15:45:40;;;;;;;3.58;3.28;;;37.60;37.70;;;;;;4972685;28;20040;-78
2022/08/14 15:48:07;;;;;;;3.75;3.22;;;38.40;35.80;;;;;;4962453;28;20063;-78
2022/08/14 15:50:32;;;;;;;3.30;3.00;;;38.40;39.00;;;;;;4962283;28;20055;-78
2022/08/14 15:52:58;;;;;;;3.22;2.92;;;38.30;37.20;;;;;;4982480;28;20617;-78
2022/08/14 15:55:24;;;;;;;3.20;2.90;;;38.30;38.60;;;;;;4979550;28;20066;-77
2022/08/14 15:57:49;;;;;;;3.40;3.15;;;38.00;38.20;;;;;;4979981;28;20106;-78
2022/08/14 16:03:00;;;;;;;5.30;4.80;;;37.80;37.60;;;;;;4982188;28;20039;-79
2022/08/14 16:05:26;;;;;;;4.65;3.63;;;37.80;38.90;;;;;;4967907;28;20062;-79
2022/08/14 16:07:52;;;;;;;4.45;4.05;;;36.80;36.90;;;;;;4963401;28;20063;-79
2022/08/14 16:10:18;;;;;;;7.43;5.57;;;36.30;40.00;;;;;;4975024;28;20044;-79
2022/08/14 16:12:45;;;;;;;3.80;3.50;;;35.80;38.80;;;;;;4982302;28;20128;-79
2022/08/14 16:15:11;;;;;;;3.50;3.20;;;35.60;40.50;;;;;;5001768;23;20043;-71
2022/08/14 16:17:37;;;;;;;3.50;3.20;;;35.20;40.00;;;;;;4981123;28;20078;-70
2022/08/14 16:20:05;;;;;;;3.80;3.50;;;34.90;40.20;;;;;;4981108;28;20059;-70
2022/08/14 16:22:34;;;;;;;3.78;3.20;;;34.70;40.40;;;;;;4980780;28;20039;-73
2022/08/14 16:25:02;;;;;;;3.40;3.10;;;34.60;41.10;;;;;;4974065;28;20059;-74
2022/08/14 16:27:29;;;;;;;3.65;3.35;;;34.90;39.50;;;;;;4960341;28;20472;-74
2022/08/14 16:29:55;;;;;;;5.00;3.20;;;35.30;38.90;;;;;;4961806;28;20036;-74
2022/08/14 16:32:22;;;;;;;3.22;3.00;;;35.80;39.00;;;;;;4961648;28;20031;-74
2022/08/14 16:34:48;;;;;;;3.65;3.33;;;36.10;38.50;;;;;;4973111;28;20573;-74
2022/08/14 16:37:17;;;;;;;3.88;2.88;;;36.50;38.30;;;;;;4972873;28;20067;-73
2022/08/14 16:39:44;;;;;;;3.53;3.22;;;36.80;39.10;;;;;;4978050;28;20040;-75
2022/08/14 16:42:11;;;;;;;5.72;3.25;;;36.40;37.20;;;;;;4977331;28;20039;-72
2022/08/14 16:44:38;;;;;;;3.03;2.83;;;36.20;37.70;;;;;;4972316;28;20099;-72
2022/08/14 16:47:13;;;;;;;3.00;2.78;;;37.00;36.80;;;;;;4965182;28;20039;-72
2022/08/14 16:49:39;;;;;;;3.38;3.08;;;37.90;38.60;;;;;;4977742;28;20114;-71
2022/08/14 16:52:08;;;;;;;3.38;3.08;;;37.40;39.10;;;;;;4978133;28;20050;-74
2022/08/14 16:54:33;;;;;;;5.82;3.40;;;36.30;37.70;;;;;;4970802;28;20099;-72
2022/08/14 16:57:14;;;;;;;3.22;3.00;;;36.00;38.70;;;;;;4957019;28;20036;-73
2022/08/14 16:59:41;;;;;;;3.25;2.95;;;35.60;40.20;;;;;;4965047;28;20126;-73
2022/08/14 17:02:07;;;;;;;3.20;3.00;;;35.10;42.00;;;;;;4973421;28;20051;-73
2022/08/14 17:04:34;;;;;;;3.72;3.42;;;34.60;39.10;;;;;;4961374;28;20043;-73
2022/08/14 17:07:02;;;;;;;3.53;3.22;;;34.30;40.20;;;;;;4977523;28;20054;-74
2022/08/14 17:09:32;;;;;;;3.70;3.40;;;34.10;43.00;;;;;;4976899;28;20078;-74
2022/08/14 17:12:03;;;;;;;4.80;3.22;;;33.70;41.40;;;;;;4977212;28;20122;-73